sensor_id;sensor_type;location;lat;lon;timestamp;pressure;altitude;pressure_sealevel;temperature;humidity
58785;BME280;44557;51.862;19.378;2022-12-18T00:00:43;100714.77;;;-3.53;89.61
58785;BME280;44557;51.862;19.378;2022-12-18T00:02:04;100719.08;;;-3.48;89.48
58785;BME280;44557;51.862;19.378;2022-12-18T00:03:06;100718.15;;;-3.51;89.39
58785;BME280;44557;51.862;19.378;2022-12-18T00:04:16;100716.64;;;-3.54;89.61
58785;BME280;44557;51.862;19.378;2022-12-18T00:05:20;100721.52;;;-3.51;89.68
58785;BME280;44557;51.862;19.378;2022-12-18T00:06:22;100717.69;;;-3.46;89.51
58785;BME280;44557;51.862;19.378;2022-12-18T00:07:24;100719.67;;;-3.45;89.33
58785;BME280;44557;51.862;19.378;2022-12-18T00:08:26;100722.27;;;-3.45;89.09
58785;BME280;44557;51.862;19.378;2022-12-18T00:09:27;100720.71;;;-3.45;89.15
58785;BME280;44557;51.862;19.378;2022-12-18T00:10:29;100719.95;;;-3.48;89.11
58785;BME280;44557;51.862;19.378;2022-12-18T00:11:31;100717.23;;;-3.50;89.39
58785;BME280;44557;51.862;19.378;2022-12-18T00:12:32;100718.33;;;-3.44;88.97
58785;BME280;44557;51.862;19.378;2022-12-18T00:13:34;100719.31;;;-3.42;88.83
58785;BME280;44557;51.862;19.378;2022-12-18T00:14:36;100722.89;;;-3.43;89.00
58785;BME280;44557;51.862;19.378;2022-12-18T00:15:38;100723.94;;;-3.49;89.12
58785;BME280;44557;51.862;19.378;2022-12-18T00:16:43;100722.52;;;-3.53;89.26
58785;BME280;44557;51.862;19.378;2022-12-18T00:17:45;100715.73;;;-3.48;89.16
58785;BME280;44557;51.862;19.378;2022-12-18T00:18:48;100720.92;;;-3.41;88.83
58785;BME280;44557;51.862;19.378;2022-12-18T00:19:50;100717.95;;;-3.42;88.97
58785;BME280;44557;51.862;19.378;2022-12-18T00:20:52;100717.02;;;-3.41;88.78
58785;BME280;44557;51.862;19.378;2022-12-18T00:21:53;100718.13;;;-3.40;88.91
58785;BME280;44557;51.862;19.378;2022-12-18T00:22:55;100720.45;;;-3.43;89.01
58785;BME280;44557;51.862;19.378;2022-12-18T00:23:58;100720.92;;;-3.42;88.80
58785;BME280;44557;51.862;19.378;2022-12-18T00:24:59;100724.46;;;-3.44;88.72
58785;BME280;44557;51.862;19.378;2022-12-18T00:26:04;100725.90;;;-3.50;89.09
58785;BME280;44557;51.862;19.378;2022-12-18T00:27:06;100726.31;;;-3.46;88.88
58785;BME280;44557;51.862;19.378;2022-12-18T00:28:08;100729.52;;;-3.43;88.71
58785;BME280;44557;51.862;19.378;2022-12-18T00:29:11;100732.94;;;-3.40;88.69
58785;BME280;44557;51.862;19.378;2022-12-18T00:30:14;100735.43;;;-3.38;88.59
58785;BME280;44557;51.862;19.378;2022-12-18T00:31:21;100738.45;;;-3.41;88.89
58785;BME280;44557;51.862;19.378;2022-12-18T00:32:23;100734.98;;;-3.41;88.66
58785;BME280;44557;51.862;19.378;2022-12-18T00:33:25;100739.27;;;-3.36;88.49
58785;BME280;44557;51.862;19.378;2022-12-18T00:34:26;100737.23;;;-3.39;88.36
58785;BME280;44557;51.862;19.378;2022-12-18T00:35:28;100740.96;;;-3.44;88.74
58785;BME280;44557;51.862;19.378;2022-12-18T00:36:32;100742.21;;;-3.45;88.60
58785;BME280;44557;51.862;19.378;2022-12-18T00:37:34;100743.00;;;-3.40;88.54
58785;BME280;44557;51.862;19.378;2022-12-18T00:38:36;100746.88;;;-3.42;88.58
58785;BME280;44557;51.862;19.378;2022-12-18T00:39:38;100744.39;;;-3.43;88.41
58785;BME280;44557;51.862;19.378;2022-12-18T00:40:40;100744.51;;;-3.47;88.66
58785;BME280;44557;51.862;19.378;2022-12-18T00:41:41;100751.93;;;-3.44;88.49
58785;BME280;44557;51.862;19.378;2022-12-18T00:43:02;100752.54;;;-3.42;88.59
58785;BME280;44557;51.862;19.378;2022-12-18T00:44:05;100752.02;;;-3.42;88.38
58785;BME280;44557;51.862;19.378;2022-12-18T00:45:07;100752.26;;;-3.42;88.55
58785;BME280;44557;51.862;19.378;2022-12-18T00:46:08;100755.55;;;-3.53;88.64
58785;BME280;44557;51.862;19.378;2022-12-18T00:47:10;100756.12;;;-3.48;88.52
58785;BME280;44557;51.862;19.378;2022-12-18T00:48:11;100762.02;;;-3.49;88.75
58785;BME280;44557;51.862;19.378;2022-12-18T00:49:14;100760.37;;;-3.47;88.65
58785;BME280;44557;51.862;19.378;2022-12-18T00:50:16;100764.09;;;-3.49;88.56
58785;BME280;44557;51.862;19.378;2022-12-18T00:51:17;100763.29;;;-3.43;88.52
58785;BME280;44557;51.862;19.378;2022-12-18T00:52:19;100764.00;;;-3.44;88.45
58785;BME280;44557;51.862;19.378;2022-12-18T00:53:21;100761.34;;;-3.47;88.35
58785;BME280;44557;51.862;19.378;2022-12-18T00:54:22;100768.06;;;-3.50;88.58
58785;BME280;44557;51.862;19.378;2022-12-18T00:55:24;100768.43;;;-3.49;88.53
58785;BME280;44557;51.862;19.378;2022-12-18T00:56:25;100775.88;;;-3.47;88.51
58785;BME280;44557;51.862;19.378;2022-12-18T00:57:27;100773.67;;;-3.47;88.46
58785;BME280;44557;51.862;19.378;2022-12-18T00:58:30;100775.27;;;-3.45;88.47
58785;BME280;44557;51.862;19.378;2022-12-18T00:59:32;100777.27;;;-3.47;88.43
58785;BME280;44557;51.862;19.378;2022-12-18T01:00:33;100782.05;;;-3.49;88.39
58785;BME280;44557;51.862;19.378;2022-12-18T01:01:37;100784.27;;;-3.49;88.30
58785;BME280;44557;51.862;19.378;2022-12-18T01:02:38;100783.19;;;-3.56;88.54
58785;BME280;44557;51.862;19.378;2022-12-18T01:03:40;100787.23;;;-3.52;88.67
58785;BME280;44557;51.862;19.378;2022-12-18T01:04:42;100785.65;;;-3.52;88.63
58785;BME280;44557;51.862;19.378;2022-12-18T01:05:43;100785.77;;;-3.52;88.44
58785;BME280;44557;51.862;19.378;2022-12-18T01:06:45;100785.89;;;-3.55;88.42
58785;BME280;44557;51.862;19.378;2022-12-18T01:07:46;100784.70;;;-3.57;88.12
58785;BME280;44557;51.862;19.378;2022-12-18T01:08:48;100787.75;;;-3.50;88.08
58785;BME280;44557;51.862;19.378;2022-12-18T01:09:49;100785.93;;;-3.51;88.03
58785;BME280;44557;51.862;19.378;2022-12-18T01:10:51;100783.98;;;-3.51;88.31
58785;BME280;44557;51.862;19.378;2022-12-18T01:11:52;100787.57;;;-3.53;88.25
58785;BME280;44557;51.862;19.378;2022-12-18T01:12:55;100784.20;;;-3.53;88.23
58785;BME280;44557;51.862;19.378;2022-12-18T01:13:59;100786.39;;;-3.52;88.30
58785;BME280;44557;51.862;19.378;2022-12-18T01:15:01;100787.48;;;-3.57;88.59
58785;BME280;44557;51.862;19.378;2022-12-18T01:16:03;100789.73;;;-3.55;88.32
58785;BME280;44557;51.862;19.378;2022-12-18T01:17:05;100787.98;;;-3.53;88.37
58785;BME280;44557;51.862;19.378;2022-12-18T01:18:07;100787.86;;;-3.54;88.36
58785;BME280;44557;51.862;19.378;2022-12-18T01:19:08;100786.48;;;-3.57;88.29
58785;BME280;44557;51.862;19.378;2022-12-18T01:20:12;100786.52;;;-3.56;88.41
58785;BME280;44557;51.862;19.378;2022-12-18T01:21:15;100786.60;;;-3.50;88.05
58785;BME280;44557;51.862;19.378;2022-12-18T01:22:17;100787.59;;;-3.46;87.88
58785;BME280;44557;51.862;19.378;2022-12-18T01:23:18;100787.55;;;-3.50;87.92
58785;BME280;44557;51.862;19.378;2022-12-18T01:24:20;100792.98;;;-3.46;87.90
58785;BME280;44557;51.862;19.378;2022-12-18T01:25:21;100792.61;;;-3.52;88.23
58785;BME280;44557;51.862;19.378;2022-12-18T01:26:24;100794.91;;;-3.55;88.18
58785;BME280;44557;51.862;19.378;2022-12-18T01:27:26;100799.09;;;-3.54;88.29
58785;BME280;44557;51.862;19.378;2022-12-18T01:28:28;100797.69;;;-3.54;88.21
58785;BME280;44557;51.862;19.378;2022-12-18T01:29:29;100800.56;;;-3.52;87.99
58785;BME280;44557;51.862;19.378;2022-12-18T01:30:31;100805.17;;;-3.49;87.96
58785;BME280;44557;51.862;19.378;2022-12-18T01:31:33;100807.72;;;-3.56;88.12
58785;BME280;44557;51.862;19.378;2022-12-18T01:32:35;100812.01;;;-3.53;88.00
58785;BME280;44557;51.862;19.378;2022-12-18T01:33:36;100809.27;;;-3.57;88.30
58785;BME280;44557;51.862;19.378;2022-12-18T01:34:38;100812.36;;;-3.61;88.66
58785;BME280;44557;51.862;19.378;2022-12-18T01:35:43;100812.65;;;-3.61;88.57
58785;BME280;44557;51.862;19.378;2022-12-18T01:36:44;100813.92;;;-3.60;88.37
58785;BME280;44557;51.862;19.378;2022-12-18T01:37:46;100812.20;;;-3.55;88.43
58785;BME280;44557;51.862;19.378;2022-12-18T01:38:48;100815.16;;;-3.53;88.12
58785;BME280;44557;51.862;19.378;2022-12-18T01:39:50;100817.84;;;-3.51;88.05
58785;BME280;44557;51.862;19.378;2022-12-18T01:41:00;100815.29;;;-3.48;87.72
58785;BME280;44557;51.862;19.378;2022-12-18T01:42:03;100816.75;;;-3.51;88.02
58785;BME280;44557;51.862;19.378;2022-12-18T01:43:04;100816.59;;;-3.56;88.16
58785;BME280;44557;51.862;19.378;2022-12-18T01:45:46;100818.17;;;-3.52;87.93
58785;BME280;44557;51.862;19.378;2022-12-18T01:46:47;100823.81;;;-3.53;87.93
58785;BME280;44557;51.862;19.378;2022-12-18T01:47:58;100824.91;;;-3.50;87.77
58785;BME280;44557;51.862;19.378;2022-12-18T01:49:01;100825.77;;;-3.55;87.82
58785;BME280;44557;51.862;19.378;2022-12-18T01:50:22;100821.11;;;-3.52;87.54
58785;BME280;44557;51.862;19.378;2022-12-18T01:51:25;100820.47;;;-3.54;87.77
58785;BME280;44557;51.862;19.378;2022-12-18T01:52:29;100817.89;;;-3.57;87.70
58785;BME280;44557;51.862;19.378;2022-12-18T01:53:32;100826.02;;;-3.50;87.59
58785;BME280;44557;51.862;19.378;2022-12-18T01:54:33;100827.17;;;-3.48;87.25
58785;BME280;44557;51.862;19.378;2022-12-18T01:55:42;100829.77;;;-3.52;87.71
58785;BME280;44557;51.862;19.378;2022-12-18T01:56:44;100830.48;;;-3.57;87.66
58785;BME280;44557;51.862;19.378;2022-12-18T01:57:46;100827.99;;;-3.56;87.70
58785;BME280;44557;51.862;19.378;2022-12-18T01:58:54;100832.98;;;-3.55;87.75
58785;BME280;44557;51.862;19.378;2022-12-18T02:00:00;100835.29;;;-3.52;87.60
58785;BME280;44557;51.862;19.378;2022-12-18T02:01:03;100836.45;;;-3.59;87.74
58785;BME280;44557;51.862;19.378;2022-12-18T02:02:04;100838.55;;;-3.52;87.75
58785;BME280;44557;51.862;19.378;2022-12-18T02:03:07;100837.13;;;-3.54;87.71
58785;BME280;44557;51.862;19.378;2022-12-18T02:04:22;100836.05;;;-3.55;87.76
58785;BME280;44557;51.862;19.378;2022-12-18T02:05:40;100837.89;;;-3.58;87.74
58785;BME280;44557;51.862;19.378;2022-12-18T02:06:47;100839.24;;;-3.60;87.82
58785;BME280;44557;51.862;19.378;2022-12-18T02:09:28;100846.95;;;-3.54;87.58
58785;BME280;44557;51.862;19.378;2022-12-18T02:10:48;100854.78;;;-3.62;88.04
58785;BME280;44557;51.862;19.378;2022-12-18T02:12:04;100850.98;;;-3.59;87.81
58785;BME280;44557;51.862;19.378;2022-12-18T02:14:29;100849.84;;;-3.58;88.02
58785;BME280;44557;51.862;19.378;2022-12-18T02:17:18;100856.63;;;-3.64;87.59
58785;BME280;44557;51.862;19.378;2022-12-18T02:18:24;100860.59;;;-3.62;87.53
58785;BME280;44557;51.862;19.378;2022-12-18T02:20:11;100863.38;;;-3.70;87.91
58785;BME280;44557;51.862;19.378;2022-12-18T02:21:45;100866.65;;;-3.70;87.83
58785;BME280;44557;51.862;19.378;2022-12-18T02:26:41;100866.11;;;-3.70;87.85
58785;BME280;44557;51.862;19.378;2022-12-18T02:27:47;100867.64;;;-3.70;87.58
58785;BME280;44557;51.862;19.378;2022-12-18T02:28:58;100868.69;;;-3.69;87.79
58785;BME280;44557;51.862;19.378;2022-12-18T02:30:03;100865.80;;;-3.73;87.88
58785;BME280;44557;51.862;19.378;2022-12-18T02:31:08;100867.78;;;-3.72;87.68
58785;BME280;44557;51.862;19.378;2022-12-18T02:32:20;100866.23;;;-3.70;87.39
58785;BME280;44557;51.862;19.378;2022-12-18T02:33:25;100874.23;;;-3.73;87.86
58785;BME280;44557;51.862;19.378;2022-12-18T02:34:31;100873.00;;;-3.71;87.38
58785;BME280;44557;51.862;19.378;2022-12-18T02:35:34;100872.60;;;-3.74;87.77
58785;BME280;44557;51.862;19.378;2022-12-18T02:36:39;100875.00;;;-3.81;87.75
58785;BME280;44557;51.862;19.378;2022-12-18T02:37:43;100876.84;;;-3.78;87.90
58785;BME280;44557;51.862;19.378;2022-12-18T02:38:46;100875.79;;;-3.75;87.66
58785;BME280;44557;51.862;19.378;2022-12-18T02:39:49;100877.08;;;-3.77;87.67
58785;BME280;44557;51.862;19.378;2022-12-18T02:40:54;100876.81;;;-3.80;87.65
58785;BME280;44557;51.862;19.378;2022-12-18T02:41:57;100878.18;;;-3.81;88.04
58785;BME280;44557;51.862;19.378;2022-12-18T02:43:17;100881.55;;;-3.81;88.06
58785;BME280;44557;51.862;19.378;2022-12-18T02:44:19;100880.63;;;-3.81;88.17
58785;BME280;44557;51.862;19.378;2022-12-18T02:45:21;100881.35;;;-3.82;88.29
58785;BME280;44557;51.862;19.378;2022-12-18T02:46:30;100884.05;;;-3.79;88.38
58785;BME280;44557;51.862;19.378;2022-12-18T02:47:36;100887.16;;;-3.79;88.11
58785;BME280;44557;51.862;19.378;2022-12-18T02:48:38;100887.27;;;-3.76;87.63
58785;BME280;44557;51.862;19.378;2022-12-18T02:49:49;100887.40;;;-3.79;87.90
58785;BME280;44557;51.862;19.378;2022-12-18T02:51:06;100885.78;;;-3.77;87.99
58785;BME280;44557;51.862;19.378;2022-12-18T02:53:33;100886.53;;;-3.85;88.02
58785;BME280;44557;51.862;19.378;2022-12-18T02:56:06;100891.82;;;-3.82;88.02
58785;BME280;44557;51.862;19.378;2022-12-18T02:59:21;100892.21;;;-3.87;88.57
58785;BME280;44557;51.862;19.378;2022-12-18T03:00:41;100895.33;;;-3.89;88.37
58785;BME280;44557;51.862;19.378;2022-12-18T03:03:05;100892.22;;;-3.95;88.66
58785;BME280;44557;51.862;19.378;2022-12-18T03:04:28;100892.30;;;-3.93;88.39
58785;BME280;44557;51.862;19.378;2022-12-18T03:05:36;100891.66;;;-3.89;88.28
58785;BME280;44557;51.862;19.378;2022-12-18T03:06:45;100893.11;;;-3.83;87.89
58785;BME280;44557;51.862;19.378;2022-12-18T03:08:27;100891.55;;;-3.91;88.28
58785;BME280;44557;51.862;19.378;2022-12-18T03:10:33;100891.54;;;-3.91;88.47
58785;BME280;44557;51.862;19.378;2022-12-18T03:11:40;100895.13;;;-3.89;88.22
58785;BME280;44557;51.862;19.378;2022-12-18T03:13:08;100898.38;;;-3.86;88.22
58785;BME280;44557;51.862;19.378;2022-12-18T03:14:13;100896.81;;;-3.88;88.47
58785;BME280;44557;51.862;19.378;2022-12-18T03:15:22;100896.15;;;-3.92;88.58
58785;BME280;44557;51.862;19.378;2022-12-18T03:16:27;100896.78;;;-3.87;88.63
58785;BME280;44557;51.862;19.378;2022-12-18T03:17:33;100897.70;;;-3.84;88.24
58785;BME280;44557;51.862;19.378;2022-12-18T03:18:43;100897.15;;;-3.88;88.38
58785;BME280;44557;51.862;19.378;2022-12-18T03:19:47;100904.22;;;-3.86;88.54
58785;BME280;44557;51.862;19.378;2022-12-18T03:20:51;100904.41;;;-3.89;88.62
58785;BME280;44557;51.862;19.378;2022-12-18T03:21:56;100907.23;;;-3.85;88.38
58785;BME280;44557;51.862;19.378;2022-12-18T03:23:04;100909.46;;;-3.85;88.14
58785;BME280;44557;51.862;19.378;2022-12-18T03:24:09;100912.89;;;-3.82;87.93
58785;BME280;44557;51.862;19.378;2022-12-18T03:25:13;100912.79;;;-3.78;87.59
58785;BME280;44557;51.862;19.378;2022-12-18T03:26:19;100916.11;;;-3.78;87.73
58785;BME280;44557;51.862;19.378;2022-12-18T03:27:23;100917.28;;;-3.82;87.85
58785;BME280;44557;51.862;19.378;2022-12-18T03:28:28;100916.51;;;-3.76;87.57
58785;BME280;44557;51.862;19.378;2022-12-18T03:29:38;100919.80;;;-3.74;87.55
58785;BME280;44557;51.862;19.378;2022-12-18T03:30:41;100921.80;;;-3.83;87.79
58785;BME280;44557;51.862;19.378;2022-12-18T03:31:49;100918.92;;;-3.79;87.98
58785;BME280;44557;51.862;19.378;2022-12-18T03:33:05;100922.27;;;-3.84;88.10
58785;BME280;44557;51.862;19.378;2022-12-18T03:34:13;100924.55;;;-3.92;88.27
58785;BME280;44557;51.862;19.378;2022-12-18T03:35:20;100931.49;;;-3.91;88.45
58785;BME280;44557;51.862;19.378;2022-12-18T03:36:23;100930.70;;;-3.90;88.42
58785;BME280;44557;51.862;19.378;2022-12-18T03:37:25;100933.02;;;-3.84;88.09
58785;BME280;44557;51.862;19.378;2022-12-18T03:38:26;100933.39;;;-3.86;88.24
58785;BME280;44557;51.862;19.378;2022-12-18T03:39:28;100937.59;;;-3.86;88.33
58785;BME280;44557;51.862;19.378;2022-12-18T03:40:38;100936.20;;;-3.89;88.61
58785;BME280;44557;51.862;19.378;2022-12-18T03:41:52;100934.13;;;-3.94;88.60
58785;BME280;44557;51.862;19.378;2022-12-18T03:43:06;100942.06;;;-3.93;88.50
58785;BME280;44557;51.862;19.378;2022-12-18T03:44:26;100944.77;;;-3.88;88.61
58785;BME280;44557;51.862;19.378;2022-12-18T03:45:38;100950.70;;;-3.90;88.73
58785;BME280;44557;51.862;19.378;2022-12-18T03:47:13;100954.66;;;-3.93;88.56
58785;BME280;44557;51.862;19.378;2022-12-18T03:48:25;100955.23;;;-3.92;88.93
58785;BME280;44557;51.862;19.378;2022-12-18T03:51:56;100958.18;;;-3.94;88.67
58785;BME280;44557;51.862;19.378;2022-12-18T03:53:55;100961.02;;;-3.89;88.56
58785;BME280;44557;51.862;19.378;2022-12-18T03:54:36;100965.20;;;-3.93;88.64
58785;BME280;44557;51.862;19.378;2022-12-18T03:55:39;100969.65;;;-3.95;88.74
58785;BME280;44557;51.862;19.378;2022-12-18T03:56:47;100968.23;;;-3.94;88.73
58785;BME280;44557;51.862;19.378;2022-12-18T03:57:51;100962.66;;;-3.95;88.66
58785;BME280;44557;51.862;19.378;2022-12-18T03:58:55;100967.64;;;-3.91;88.65
58785;BME280;44557;51.862;19.378;2022-12-18T04:00:17;100965.05;;;-3.92;88.54
58785;BME280;44557;51.862;19.378;2022-12-18T04:01:22;100964.79;;;-3.90;88.58
58785;BME280;44557;51.862;19.378;2022-12-18T04:02:27;100965.48;;;-3.91;88.88
58785;BME280;44557;51.862;19.378;2022-12-18T04:03:31;100962.89;;;-3.86;88.83
58785;BME280;44557;51.862;19.378;2022-12-18T04:04:35;100964.80;;;-3.86;88.66
58785;BME280;44557;51.862;19.378;2022-12-18T04:05:40;100965.27;;;-3.87;88.69
58785;BME280;44557;51.862;19.378;2022-12-18T04:06:46;100968.90;;;-3.85;88.60
58785;BME280;44557;51.862;19.378;2022-12-18T04:07:49;100974.00;;;-3.85;88.60
58785;BME280;44557;51.862;19.378;2022-12-18T04:08:53;100973.98;;;-3.84;88.47
58785;BME280;44557;51.862;19.378;2022-12-18T04:09:56;100979.36;;;-3.90;88.28
58785;BME280;44557;51.862;19.378;2022-12-18T04:11:01;100973.83;;;-3.97;88.92
58785;BME280;44557;51.862;19.378;2022-12-18T04:12:03;100974.81;;;-3.91;89.16
58785;BME280;44557;51.862;19.378;2022-12-18T04:13:04;100974.19;;;-3.93;88.92
58785;BME280;44557;51.862;19.378;2022-12-18T04:14:06;100972.05;;;-3.93;89.33
58785;BME280;44557;51.862;19.378;2022-12-18T04:15:09;100966.07;;;-3.84;88.92
58785;BME280;44557;51.862;19.378;2022-12-18T04:16:11;100969.38;;;-3.88;88.56
58785;BME280;44557;51.862;19.378;2022-12-18T04:17:12;100974.27;;;-3.95;88.96
58785;BME280;44557;51.862;19.378;2022-12-18T04:18:14;100979.67;;;-4.00;89.05
58785;BME280;44557;51.862;19.378;2022-12-18T04:19:15;100979.91;;;-3.96;89.20
58785;BME280;44557;51.862;19.378;2022-12-18T04:20:17;100985.39;;;-3.96;89.09
58785;BME280;44557;51.862;19.378;2022-12-18T04:21:19;100988.42;;;-4.00;89.21
58785;BME280;44557;51.862;19.378;2022-12-18T04:22:21;100987.86;;;-3.97;89.13
58785;BME280;44557;51.862;19.378;2022-12-18T04:23:23;100986.27;;;-3.99;89.10
58785;BME280;44557;51.862;19.378;2022-12-18T04:24:24;100989.68;;;-3.93;89.15
58785;BME280;44557;51.862;19.378;2022-12-18T04:25:26;100989.20;;;-3.95;89.04
58785;BME280;44557;51.862;19.378;2022-12-18T04:26:27;100988.11;;;-3.96;89.35
58785;BME280;44557;51.862;19.378;2022-12-18T04:27:29;100989.17;;;-3.94;89.11
58785;BME280;44557;51.862;19.378;2022-12-18T04:28:30;100991.12;;;-3.91;89.36
58785;BME280;44557;51.862;19.378;2022-12-18T04:29:32;100993.27;;;-3.90;89.08
58785;BME280;44557;51.862;19.378;2022-12-18T04:30:34;100994.96;;;-3.80;88.67
58785;BME280;44557;51.862;19.378;2022-12-18T04:31:35;100993.69;;;-3.91;88.66
58785;BME280;44557;51.862;19.378;2022-12-18T04:32:37;100996.27;;;-3.92;88.98
58785;BME280;44557;51.862;19.378;2022-12-18T04:33:38;100998.16;;;-3.94;89.17
58785;BME280;44557;51.862;19.378;2022-12-18T04:34:40;100996.08;;;-3.87;88.73
58785;BME280;44557;51.862;19.378;2022-12-18T04:35:41;101001.27;;;-3.89;89.04
58785;BME280;44557;51.862;19.378;2022-12-18T04:36:43;101003.89;;;-3.94;89.20
58785;BME280;44557;51.862;19.378;2022-12-18T04:37:45;101006.70;;;-3.83;88.74
58785;BME280;44557;51.862;19.378;2022-12-18T04:38:46;101008.95;;;-3.88;88.80
58785;BME280;44557;51.862;19.378;2022-12-18T04:39:48;101013.73;;;-3.92;89.20
58785;BME280;44557;51.862;19.378;2022-12-18T04:40:50;101010.70;;;-3.99;89.14
58785;BME280;44557;51.862;19.378;2022-12-18T04:41:51;101011.09;;;-3.95;89.28
58785;BME280;44557;51.862;19.378;2022-12-18T04:42:53;101018.73;;;-3.88;89.38
58785;BME280;44557;51.862;19.378;2022-12-18T04:43:54;101017.60;;;-3.84;89.08
58785;BME280;44557;51.862;19.378;2022-12-18T04:44:56;101015.35;;;-3.80;88.76
58785;BME280;44557;51.862;19.378;2022-12-18T04:46:05;101019.86;;;-3.80;88.74
58785;BME280;44557;51.862;19.378;2022-12-18T04:47:07;101014.27;;;-3.79;88.90
58785;BME280;44557;51.862;19.378;2022-12-18T04:48:09;101017.79;;;-3.83;88.77
58785;BME280;44557;51.862;19.378;2022-12-18T04:49:10;101018.16;;;-3.79;88.92
58785;BME280;44557;51.862;19.378;2022-12-18T04:50:12;101019.98;;;-3.73;88.57
58785;BME280;44557;51.862;19.378;2022-12-18T04:51:14;101022.91;;;-3.79;88.82
58785;BME280;44557;51.862;19.378;2022-12-18T04:52:15;101026.08;;;-3.81;88.83
58785;BME280;44557;51.862;19.378;2022-12-18T04:53:17;101025.98;;;-3.81;88.64
58785;BME280;44557;51.862;19.378;2022-12-18T04:54:18;101025.95;;;-3.73;88.41
58785;BME280;44557;51.862;19.378;2022-12-18T04:55:20;101020.87;;;-3.72;88.37
58785;BME280;44557;51.862;19.378;2022-12-18T04:56:22;101023.05;;;-3.70;88.20
58785;BME280;44557;51.862;19.378;2022-12-18T04:57:23;101027.34;;;-3.76;88.23
58785;BME280;44557;51.862;19.378;2022-12-18T04:58:25;101031.30;;;-3.73;88.27
58785;BME280;44557;51.862;19.378;2022-12-18T04:59:26;101034.40;;;-3.71;88.15
58785;BME280;44557;51.862;19.378;2022-12-18T05:00:28;101032.88;;;-3.73;88.09
58785;BME280;44557;51.862;19.378;2022-12-18T05:01:30;101032.15;;;-3.81;88.44
58785;BME280;44557;51.862;19.378;2022-12-18T05:02:31;101031.98;;;-3.87;88.65
58785;BME280;44557;51.862;19.378;2022-12-18T05:03:34;101028.48;;;-3.85;88.58
58785;BME280;44557;51.862;19.378;2022-12-18T05:04:36;101029.38;;;-3.77;88.54
58785;BME280;44557;51.862;19.378;2022-12-18T05:05:38;101030.00;;;-3.81;88.26
58785;BME280;44557;51.862;19.378;2022-12-18T05:06:39;101030.11;;;-3.75;88.02
58785;BME280;44557;51.862;19.378;2022-12-18T05:07:41;101027.34;;;-3.77;87.83
58785;BME280;44557;51.862;19.378;2022-12-18T05:08:42;101029.87;;;-3.77;88.21
58785;BME280;44557;51.862;19.378;2022-12-18T05:09:44;101034.28;;;-3.75;87.90
58785;BME280;44557;51.862;19.378;2022-12-18T05:10:46;101033.64;;;-3.77;88.04
58785;BME280;44557;51.862;19.378;2022-12-18T05:11:47;101036.23;;;-3.74;87.99
58785;BME280;44557;51.862;19.378;2022-12-18T05:12:49;101040.67;;;-3.76;88.05
58785;BME280;44557;51.862;19.378;2022-12-18T05:13:59;101043.46;;;-3.80;88.14
58785;BME280;44557;51.862;19.378;2022-12-18T05:15:03;101042.77;;;-3.76;88.23
58785;BME280;44557;51.862;19.378;2022-12-18T05:16:05;101046.39;;;-3.77;88.17
58785;BME280;44557;51.862;19.378;2022-12-18T05:17:07;101046.02;;;-3.78;88.31
58785;BME280;44557;51.862;19.378;2022-12-18T05:18:09;101045.61;;;-3.78;88.34
58785;BME280;44557;51.862;19.378;2022-12-18T05:19:10;101041.95;;;-3.74;88.22
58785;BME280;44557;51.862;19.378;2022-12-18T05:20:12;101041.81;;;-3.83;88.27
58785;BME280;44557;51.862;19.378;2022-12-18T05:21:14;101039.44;;;-3.79;88.28
58785;BME280;44557;51.862;19.378;2022-12-18T05:22:15;101039.80;;;-3.75;87.96
58785;BME280;44557;51.862;19.378;2022-12-18T05:23:17;101040.44;;;-3.76;88.05
58785;BME280;44557;51.862;19.378;2022-12-18T05:24:19;101047.44;;;-3.81;87.95
58785;BME280;44557;51.862;19.378;2022-12-18T05:25:21;101047.14;;;-3.80;88.26
58785;BME280;44557;51.862;19.378;2022-12-18T05:26:22;101049.77;;;-3.79;88.10
58785;BME280;44557;51.862;19.378;2022-12-18T05:27:24;101045.57;;;-3.92;88.21
58785;BME280;44557;51.862;19.378;2022-12-18T05:28:28;101043.15;;;-3.86;88.30
58785;BME280;44557;51.862;19.378;2022-12-18T05:29:30;101048.71;;;-3.88;88.48
58785;BME280;44557;51.862;19.378;2022-12-18T05:30:32;101047.25;;;-3.88;88.31
58785;BME280;44557;51.862;19.378;2022-12-18T05:31:33;101051.77;;;-3.90;88.52
58785;BME280;44557;51.862;19.378;2022-12-18T05:32:35;101054.76;;;-3.87;88.26
58785;BME280;44557;51.862;19.378;2022-12-18T05:33:36;101055.92;;;-3.89;88.49
58785;BME280;44557;51.862;19.378;2022-12-18T05:34:38;101051.09;;;-3.95;88.46
58785;BME280;44557;51.862;19.378;2022-12-18T05:35:40;101054.02;;;-3.92;88.54
58785;BME280;44557;51.862;19.378;2022-12-18T05:36:41;101053.23;;;-3.94;88.46
58785;BME280;44557;51.862;19.378;2022-12-18T05:37:43;101049.67;;;-3.89;88.20
58785;BME280;44557;51.862;19.378;2022-12-18T05:38:44;101053.14;;;-3.87;88.19
58785;BME280;44557;51.862;19.378;2022-12-18T05:39:46;101050.23;;;-3.87;88.27
58785;BME280;44557;51.862;19.378;2022-12-18T05:40:51;101050.64;;;-3.86;88.17
58785;BME280;44557;51.862;19.378;2022-12-18T05:41:53;101051.80;;;-3.85;88.02
58785;BME280;44557;51.862;19.378;2022-12-18T05:42:55;101053.89;;;-3.87;87.88
58785;BME280;44557;51.862;19.378;2022-12-18T05:43:56;101058.40;;;-3.88;88.20
58785;BME280;44557;51.862;19.378;2022-12-18T05:44:58;101062.45;;;-3.87;87.99
58785;BME280;44557;51.862;19.378;2022-12-18T05:46:06;101060.27;;;-3.95;87.91
58785;BME280;44557;51.862;19.378;2022-12-18T05:47:08;101062.66;;;-4.02;88.23
58785;BME280;44557;51.862;19.378;2022-12-18T05:48:11;101066.95;;;-4.01;88.48
58785;BME280;44557;51.862;19.378;2022-12-18T05:49:12;101066.56;;;-3.93;88.38
58785;BME280;44557;51.862;19.378;2022-12-18T05:50:14;101073.89;;;-3.89;88.13
58785;BME280;44557;51.862;19.378;2022-12-18T05:51:17;101070.21;;;-3.91;87.60
58785;BME280;44557;51.862;19.378;2022-12-18T05:52:19;101070.97;;;-3.95;88.08
58785;BME280;44557;51.862;19.378;2022-12-18T05:53:20;101072.45;;;-3.92;88.01